Cleveland, Tennessee
Current Conditions -  °F | °C
As of 5:05 PM on Sunday 23 Nov 2014 (Local Time) from KCHA Reporting Station
Moderate Rain Moderate Rain  
Wind Chill: 51°   Ceiling: 800
Heat Index: 51°   Visibility: 1mi
Dew Point: 50°   Wind: 6mph
Humidity: 96%   Direction: 90°E
Pressure: 29.62"   Gusts: NA
Location:  35.16°N, 84.87°W
Report Text: KCHA 232205Z 09005KT 1SM RA BR SCT003 BKN008 OVC015 11/10 A2962 RMK AO2 SFC VIS 3 P0009 T01060100
Loading
Personal Weather Stations






























Interactive Weather Map New forecast layout! Learn more

10-Day Weather Forecast

Advertisements
Track Severe Weather on mobile